sensor_id;sensor_type;location;lat;lon;timestamp;pressure;altitude;pressure_sealevel;temperature
11728;BMP180;5920;49.166;8.624;2022-09-12T00:00:19;100437.00;;;17.10
11728;BMP180;5920;49.166;8.624;2022-09-12T00:02:47;100427.00;;;17.00
11728;BMP180;5920;49.166;8.624;2022-09-12T00:05:17;100433.00;;;17.00
11728;BMP180;5920;49.166;8.624;2022-09-12T00:07:44;100429.00;;;17.00
11728;BMP180;5920;49.166;8.624;2022-09-12T00:10:10;100432.00;;;17.00
11728;BMP180;5920;49.166;8.624;2022-09-12T00:12:37;100435.00;;;17.00
11728;BMP180;5920;49.166;8.624;2022-09-12T00:15:03;100430.00;;;17.00
11728;BMP180;5920;49.166;8.624;2022-09-12T00:17:31;100425.00;;;16.90
11728;BMP180;5920;49.166;8.624;2022-09-12T00:19:59;100428.00;;;16.80
11728;BMP180;5920;49.166;8.624;2022-09-12T00:22:26;100417.00;;;16.70
11728;BMP180;5920;49.166;8.624;2022-09-12T00:24:53;100418.00;;;16.50
11728;BMP180;5920;49.166;8.624;2022-09-12T00:27:19;100414.00;;;16.40
11728;BMP180;5920;49.166;8.624;2022-09-12T00:29:46;100423.00;;;16.40
11728;BMP180;5920;49.166;8.624;2022-09-12T00:32:12;100419.00;;;16.40
11728;BMP180;5920;49.166;8.624;2022-09-12T00:34:38;100413.00;;;16.50
11728;BMP180;5920;49.166;8.624;2022-09-12T00:37:05;100413.00;;;16.50
11728;BMP180;5920;49.166;8.624;2022-09-12T00:39:32;100408.00;;;16.50
11728;BMP180;5920;49.166;8.624;2022-09-12T00:41:59;100407.00;;;16.50
11728;BMP180;5920;49.166;8.624;2022-09-12T00:44:42;100402.00;;;16.60
11728;BMP180;5920;49.166;8.624;2022-09-12T00:47:10;100402.00;;;16.50
11728;BMP180;5920;49.166;8.624;2022-09-12T00:49:40;100388.00;;;16.50
11728;BMP180;5920;49.166;8.624;2022-09-12T00:52:09;100402.00;;;16.50
11728;BMP180;5920;49.166;8.624;2022-09-12T00:54:38;100390.00;;;16.40
11728;BMP180;5920;49.166;8.624;2022-09-12T00:57:06;100390.00;;;16.30
11728;BMP180;5920;49.166;8.624;2022-09-12T00:59:36;100385.00;;;16.30
11728;BMP180;5920;49.166;8.624;2022-09-12T01:02:03;100388.00;;;16.30
11728;BMP180;5920;49.166;8.624;2022-09-12T01:04:29;100386.00;;;16.30
11728;BMP180;5920;49.166;8.624;2022-09-12T01:06:56;100381.00;;;16.20
11728;BMP180;5920;49.166;8.624;2022-09-12T01:09:23;100376.00;;;16.10
11728;BMP180;5920;49.166;8.624;2022-09-12T01:11:52;100375.00;;;16.00
11728;BMP180;5920;49.166;8.624;2022-09-12T01:14:21;100379.00;;;16.10
11728;BMP180;5920;49.166;8.624;2022-09-12T01:16:48;100383.00;;;16.10
11728;BMP180;5920;49.166;8.624;2022-09-12T01:19:24;100382.00;;;16.10
11728;BMP180;5920;49.166;8.624;2022-09-12T01:21:55;100392.00;;;16.20
11728;BMP180;5920;49.166;8.624;2022-09-12T01:24:36;100383.00;;;16.30
11728;BMP180;5920;49.166;8.624;2022-09-12T01:27:19;100387.00;;;16.30
11728;BMP180;5920;49.166;8.624;2022-09-12T01:32:40;100386.00;;;16.30
11728;BMP180;5920;49.166;8.624;2022-09-12T01:35:10;100389.00;;;16.10
11728;BMP180;5920;49.166;8.624;2022-09-12T01:37:41;100391.00;;;16.10
11728;BMP180;5920;49.166;8.624;2022-09-12T01:40:14;100383.00;;;15.90
11728;BMP180;5920;49.166;8.624;2022-09-12T01:42:48;100374.00;;;15.80
11728;BMP180;5920;49.166;8.624;2022-09-12T01:45:17;100373.00;;;15.70
11728;BMP180;5920;49.166;8.624;2022-09-12T01:47:48;100378.00;;;15.70
11728;BMP180;5920;49.166;8.624;2022-09-12T01:50:17;100383.00;;;15.80
11728;BMP180;5920;49.166;8.624;2022-09-12T01:52:45;100372.00;;;15.80
11728;BMP180;5920;49.166;8.624;2022-09-12T01:55:15;100377.00;;;15.80
11728;BMP180;5920;49.166;8.624;2022-09-12T01:57:44;100376.00;;;15.80
11728;BMP180;5920;49.166;8.624;2022-09-12T02:00:12;100364.00;;;15.80
11728;BMP180;5920;49.166;8.624;2022-09-12T02:02:39;100364.00;;;15.90
11728;BMP180;5920;49.166;8.624;2022-09-12T02:05:09;100358.00;;;15.90
11728;BMP180;5920;49.166;8.624;2022-09-12T02:07:36;100360.00;;;15.90
11728;BMP180;5920;49.166;8.624;2022-09-12T02:10:05;100359.00;;;15.90
11728;BMP180;5920;49.166;8.624;2022-09-12T02:12:34;100357.00;;;15.80
11728;BMP180;5920;49.166;8.624;2022-09-12T02:15:03;100350.00;;;15.80
11728;BMP180;5920;49.166;8.624;2022-09-12T02:17:33;100345.00;;;15.70
11728;BMP180;5920;49.166;8.624;2022-09-12T02:20:03;100343.00;;;15.70
11728;BMP180;5920;49.166;8.624;2022-09-12T02:22:32;100349.00;;;15.70
11728;BMP180;5920;49.166;8.624;2022-09-12T02:25:00;100351.00;;;15.70
11728;BMP180;5920;49.166;8.624;2022-09-12T02:27:29;100349.00;;;15.70
11728;BMP180;5920;49.166;8.624;2022-09-12T02:29:57;100348.00;;;15.80
11728;BMP180;5920;49.166;8.624;2022-09-12T02:32:27;100352.00;;;15.80
11728;BMP180;5920;49.166;8.624;2022-09-12T02:34:55;100344.00;;;15.70
11728;BMP180;5920;49.166;8.624;2022-09-12T02:37:27;100344.00;;;15.70
11728;BMP180;5920;49.166;8.624;2022-09-12T02:39:59;100340.00;;;15.60
11728;BMP180;5920;49.166;8.624;2022-09-12T02:42:25;100343.00;;;15.40
11728;BMP180;5920;49.166;8.624;2022-09-12T02:44:52;100337.00;;;15.50
11728;BMP180;5920;49.166;8.624;2022-09-12T02:47:22;100334.00;;;15.50
11728;BMP180;5920;49.166;8.624;2022-09-12T02:49:50;100335.00;;;15.60
11728;BMP180;5920;49.166;8.624;2022-09-12T02:52:17;100334.00;;;15.50
11728;BMP180;5920;49.166;8.624;2022-09-12T02:54:44;100333.00;;;15.50
11728;BMP180;5920;49.166;8.624;2022-09-12T02:57:15;100326.00;;;15.40
11728;BMP180;5920;49.166;8.624;2022-09-12T02:59:42;100332.00;;;15.40
11728;BMP180;5920;49.166;8.624;2022-09-12T03:04:57;100332.00;;;15.20
11728;BMP180;5920;49.166;8.624;2022-09-12T03:07:31;100326.00;;;15.10
11728;BMP180;5920;49.166;8.624;2022-09-12T03:10:02;100324.00;;;15.10
11728;BMP180;5920;49.166;8.624;2022-09-12T03:12:38;100325.00;;;15.20
11728;BMP180;5920;49.166;8.624;2022-09-12T03:15:17;100321.00;;;15.30
11728;BMP180;5920;49.166;8.624;2022-09-12T03:17:49;100326.00;;;15.30
11728;BMP180;5920;49.166;8.624;2022-09-12T03:20:19;100322.00;;;15.30
11728;BMP180;5920;49.166;8.624;2022-09-12T03:22:48;100318.00;;;15.30
11728;BMP180;5920;49.166;8.624;2022-09-12T03:25:17;100325.00;;;15.20
11728;BMP180;5920;49.166;8.624;2022-09-12T03:27:49;100338.00;;;15.00
11728;BMP180;5920;49.166;8.624;2022-09-12T03:30:18;100335.00;;;14.90
11728;BMP180;5920;49.166;8.624;2022-09-12T03:32:45;100320.00;;;15.00
11728;BMP180;5920;49.166;8.624;2022-09-12T03:35:12;100321.00;;;15.10
11728;BMP180;5920;49.166;8.624;2022-09-12T03:37:39;100326.00;;;15.20
11728;BMP180;5920;49.166;8.624;2022-09-12T03:40:06;100321.00;;;15.30
11728;BMP180;5920;49.166;8.624;2022-09-12T03:42:33;100322.00;;;15.40
11728;BMP180;5920;49.166;8.624;2022-09-12T03:45:00;100326.00;;;15.40
11728;BMP180;5920;49.166;8.624;2022-09-12T03:47:27;100321.00;;;15.40
11728;BMP180;5920;49.166;8.624;2022-09-12T03:49:53;100324.00;;;15.30
11728;BMP180;5920;49.166;8.624;2022-09-12T03:52:19;100326.00;;;15.30
11728;BMP180;5920;49.166;8.624;2022-09-12T03:54:46;100316.00;;;15.30
11728;BMP180;5920;49.166;8.624;2022-09-12T03:57:13;100319.00;;;15.30
11728;BMP180;5920;49.166;8.624;2022-09-12T03:59:39;100322.00;;;15.20
11728;BMP180;5920;49.166;8.624;2022-09-12T04:02:07;100326.00;;;15.30
11728;BMP180;5920;49.166;8.624;2022-09-12T04:04:36;100323.00;;;15.40
11728;BMP180;5920;49.166;8.624;2022-09-12T04:07:02;100319.00;;;15.50
11728;BMP180;5920;49.166;8.624;2022-09-12T04:09:29;100326.00;;;15.50
11728;BMP180;5920;49.166;8.624;2022-09-12T04:11:55;100323.00;;;15.50
11728;BMP180;5920;49.166;8.624;2022-09-12T04:14:22;100315.00;;;15.60
11728;BMP180;5920;49.166;8.624;2022-09-12T04:16:48;100314.00;;;15.50
11728;BMP180;5920;49.166;8.624;2022-09-12T04:19:16;100330.00;;;15.40
11728;BMP180;5920;49.166;8.624;2022-09-12T04:21:42;100312.00;;;15.40
11728;BMP180;5920;49.166;8.624;2022-09-12T04:24:08;100316.00;;;15.40
11728;BMP180;5920;49.166;8.624;2022-09-12T04:26:35;100313.00;;;15.30
11728;BMP180;5920;49.166;8.624;2022-09-12T04:29:01;100311.00;;;15.30
11728;BMP180;5920;49.166;8.624;2022-09-12T04:31:28;100317.00;;;15.30
11728;BMP180;5920;49.166;8.624;2022-09-12T04:33:54;100320.00;;;15.30
11728;BMP180;5920;49.166;8.624;2022-09-12T04:36:23;100314.00;;;15.30
11728;BMP180;5920;49.166;8.624;2022-09-12T04:38:50;100300.00;;;15.30
11728;BMP180;5920;49.166;8.624;2022-09-12T04:41:17;100311.00;;;15.30
11728;BMP180;5920;49.166;8.624;2022-09-12T04:43:44;100310.00;;;15.30
11728;BMP180;5920;49.166;8.624;2022-09-12T04:46:11;100304.00;;;15.30
11728;BMP180;5920;49.166;8.624;2022-09-12T04:48:39;100309.00;;;15.20
11728;BMP180;5920;49.166;8.624;2022-09-12T04:51:06;100304.00;;;15.30
11728;BMP180;5920;49.166;8.624;2022-09-12T04:53:34;100303.00;;;15.30
11728;BMP180;5920;49.166;8.624;2022-09-12T04:56:01;100309.00;;;15.30
11728;BMP180;5920;49.166;8.624;2022-09-12T04:58:27;100297.00;;;15.30
11728;BMP180;5920;49.166;8.624;2022-09-12T05:00:54;100296.00;;;15.30
11728;BMP180;5920;49.166;8.624;2022-09-12T05:03:20;100297.00;;;15.30
11728;BMP180;5920;49.166;8.624;2022-09-12T05:05:46;100293.00;;;15.30
11728;BMP180;5920;49.166;8.624;2022-09-12T05:08:13;100300.00;;;15.30
11728;BMP180;5920;49.166;8.624;2022-09-12T05:10:41;100307.00;;;15.30
11728;BMP180;5920;49.166;8.624;2022-09-12T05:13:07;100304.00;;;15.30
11728;BMP180;5920;49.166;8.624;2022-09-12T05:15:34;100316.00;;;15.20
11728;BMP180;5920;49.166;8.624;2022-09-12T05:18:01;100310.00;;;15.30
11728;BMP180;5920;49.166;8.624;2022-09-12T05:20:28;100315.00;;;15.30
11728;BMP180;5920;49.166;8.624;2022-09-12T05:22:54;100314.00;;;15.30
11728;BMP180;5920;49.166;8.624;2022-09-12T05:25:20;100312.00;;;15.30
11728;BMP180;5920;49.166;8.624;2022-09-12T05:27:49;100309.00;;;15.30
11728;BMP180;5920;49.166;8.624;2022-09-12T05:30:17;100308.00;;;15.20
11728;BMP180;5920;49.166;8.624;2022-09-12T05:32:43;100303.00;;;15.30
11728;BMP180;5920;49.166;8.624;2022-09-12T05:35:09;100306.00;;;15.40
11728;BMP180;5920;49.166;8.624;2022-09-12T05:37:36;100305.00;;;15.50
11728;BMP180;5920;49.166;8.624;2022-09-12T05:40:03;100299.00;;;15.70
11728;BMP180;5920;49.166;8.624;2022-09-12T05:42:31;100303.00;;;15.90
11728;BMP180;5920;49.166;8.624;2022-09-12T05:45:05;100307.00;;;16.10
11728;BMP180;5920;49.166;8.624;2022-09-12T05:47:31;100309.00;;;16.30
11728;BMP180;5920;49.166;8.624;2022-09-12T05:49:57;100304.00;;;16.40
11728;BMP180;5920;49.166;8.624;2022-09-12T05:52:24;100306.00;;;16.60
11728;BMP180;5920;49.166;8.624;2022-09-12T05:54:50;100312.00;;;16.70
11728;BMP180;5920;49.166;8.624;2022-09-12T05:57:17;100316.00;;;16.80
11728;BMP180;5920;49.166;8.624;2022-09-12T05:59:43;100322.00;;;16.90
11728;BMP180;5920;49.166;8.624;2022-09-12T06:02:11;100322.00;;;17.00
11728;BMP180;5920;49.166;8.624;2022-09-12T06:04:38;100319.00;;;17.10
11728;BMP180;5920;49.166;8.624;2022-09-12T06:07:05;100320.00;;;17.10
11728;BMP180;5920;49.166;8.624;2022-09-12T06:09:31;100312.00;;;17.10
11728;BMP180;5920;49.166;8.624;2022-09-12T06:11:57;100319.00;;;17.10
11728;BMP180;5920;49.166;8.624;2022-09-12T06:14:24;100317.00;;;17.10
11728;BMP180;5920;49.166;8.624;2022-09-12T06:16:51;100317.00;;;17.30
11728;BMP180;5920;49.166;8.624;2022-09-12T06:19:19;100326.00;;;17.50
11728;BMP180;5920;49.166;8.624;2022-09-12T06:21:46;100323.00;;;17.80
11728;BMP180;5920;49.166;8.624;2022-09-12T06:24:13;100321.00;;;18.10
11728;BMP180;5920;49.166;8.624;2022-09-12T06:26:40;100322.00;;;18.30
11728;BMP180;5920;49.166;8.624;2022-09-12T06:29:08;100319.00;;;18.50
11728;BMP180;5920;49.166;8.624;2022-09-12T06:31:36;100319.00;;;18.70
11728;BMP180;5920;49.166;8.624;2022-09-12T06:34:03;100317.00;;;18.90
11728;BMP180;5920;49.166;8.624;2022-09-12T06:36:32;100323.00;;;19.00
11728;BMP180;5920;49.166;8.624;2022-09-12T06:38:59;100313.00;;;19.20
11728;BMP180;5920;49.166;8.624;2022-09-12T06:41:26;100310.00;;;19.40
11728;BMP180;5920;49.166;8.624;2022-09-12T06:43:53;100314.00;;;19.60
11728;BMP180;5920;49.166;8.624;2022-09-12T06:46:20;100314.00;;;19.80
11728;BMP180;5920;49.166;8.624;2022-09-12T06:48:46;100304.00;;;20.10
11728;BMP180;5920;49.166;8.624;2022-09-12T06:51:14;100301.00;;;20.30
11728;BMP180;5920;49.166;8.624;2022-09-12T06:53:42;100307.00;;;20.40
11728;BMP180;5920;49.166;8.624;2022-09-12T06:56:10;100306.00;;;20.60
11728;BMP180;5920;49.166;8.624;2022-09-12T06:58:36;100309.00;;;20.80
11728;BMP180;5920;49.166;8.624;2022-09-12T07:01:04;100314.00;;;21.00
11728;BMP180;5920;49.166;8.624;2022-09-12T07:03:31;100321.00;;;21.10
11728;BMP180;5920;49.166;8.624;2022-09-12T07:06:00;100330.00;;;21.30
11728;BMP180;5920;49.166;8.624;2022-09-12T07:08:27;100320.00;;;21.40
11728;BMP180;5920;49.166;8.624;2022-09-12T07:10:57;100319.00;;;21.60
11728;BMP180;5920;49.166;8.624;2022-09-12T07:13:25;100314.00;;;21.80
11728;BMP180;5920;49.166;8.624;2022-09-12T07:15:51;100324.00;;;21.90
11728;BMP180;5920;49.166;8.624;2022-09-12T07:18:18;100321.00;;;22.00
11728;BMP180;5920;49.166;8.624;2022-09-12T07:20:44;100326.00;;;22.10
11728;BMP180;5920;49.166;8.624;2022-09-12T07:23:11;100334.00;;;22.20
11728;BMP180;5920;49.166;8.624;2022-09-12T07:25:37;100326.00;;;22.30
11728;BMP180;5920;49.166;8.624;2022-09-12T07:28:05;100323.00;;;22.40
11728;BMP180;5920;49.166;8.624;2022-09-12T07:30:31;100325.00;;;22.50
11728;BMP180;5920;49.166;8.624;2022-09-12T07:32:58;100335.00;;;22.60
11728;BMP180;5920;49.166;8.624;2022-09-12T07:35:24;100324.00;;;22.70
11728;BMP180;5920;49.166;8.624;2022-09-12T07:37:50;100330.00;;;22.90
11728;BMP180;5920;49.166;8.624;2022-09-12T07:40:17;100319.00;;;23.00
11728;BMP180;5920;49.166;8.624;2022-09-12T07:42:43;100324.00;;;23.20
11728;BMP180;5920;49.166;8.624;2022-09-12T07:45:11;100319.00;;;23.20
11728;BMP180;5920;49.166;8.624;2022-09-12T07:47:37;100321.00;;;23.20
11728;BMP180;5920;49.166;8.624;2022-09-12T07:50:05;100326.00;;;23.10
11728;BMP180;5920;49.166;8.624;2022-09-12T07:52:32;100319.00;;;23.10
11728;BMP180;5920;49.166;8.624;2022-09-12T07:54:58;100322.00;;;23.20
11728;BMP180;5920;49.166;8.624;2022-09-12T07:57:24;100323.00;;;23.40
11728;BMP180;5920;49.166;8.624;2022-09-12T07:59:53;100323.00;;;23.50
11728;BMP180;5920;49.166;8.624;2022-09-12T08:02:21;100323.00;;;23.50
11728;BMP180;5920;49.166;8.624;2022-09-12T08:04:47;100322.00;;;23.40
11728;BMP180;5920;49.166;8.624;2022-09-12T08:07:15;100321.00;;;23.40
11728;BMP180;5920;49.166;8.624;2022-09-12T08:09:43;100319.00;;;23.50
11728;BMP180;5920;49.166;8.624;2022-09-12T08:12:09;100320.00;;;23.50
11728;BMP180;5920;49.166;8.624;2022-09-12T08:14:36;100318.00;;;23.60
11728;BMP180;5920;49.166;8.624;2022-09-12T08:17:02;100320.00;;;23.60
11728;BMP180;5920;49.166;8.624;2022-09-12T08:19:30;100315.00;;;23.70
11728;BMP180;5920;49.166;8.624;2022-09-12T08:21:56;100318.00;;;23.70
11728;BMP180;5920;49.166;8.624;2022-09-12T08:24:23;100311.00;;;23.70
11728;BMP180;5920;49.166;8.624;2022-09-12T08:26:50;100310.00;;;23.80
11728;BMP180;5920;49.166;8.624;2022-09-12T08:29:16;100316.00;;;24.00
11728;BMP180;5920;49.166;8.624;2022-09-12T08:31:42;100318.00;;;24.00
11728;BMP180;5920;49.166;8.624;2022-09-12T08:34:10;100315.00;;;24.00
11728;BMP180;5920;49.166;8.624;2022-09-12T08:36:38;100320.00;;;24.20
11728;BMP180;5920;49.166;8.624;2022-09-12T08:39:05;100321.00;;;24.30
11728;BMP180;5920;49.166;8.624;2022-09-12T08:41:32;100314.00;;;24.30
11728;BMP180;5920;49.166;8.624;2022-09-12T08:46:31;100311.00;;;24.60
11728;BMP180;5920;49.166;8.624;2022-09-12T08:48:57;100308.00;;;24.70
11728;BMP180;5920;49.166;8.624;2022-09-12T08:51:25;100309.00;;;24.80
11728;BMP180;5920;49.166;8.624;2022-09-12T08:53:54;100309.00;;;24.70
11728;BMP180;5920;49.166;8.624;2022-09-12T08:56:20;100313.00;;;24.50
11728;BMP180;5920;49.166;8.624;2022-09-12T08:58:47;100303.00;;;24.60
11728;BMP180;5920;49.166;8.624;2022-09-12T09:01:17;100307.00;;;24.70
11728;BMP180;5920;49.166;8.624;2022-09-12T09:04:03;100303.00;;;24.80
11728;BMP180;5920;49.166;8.624;2022-09-12T09:06:42;100298.00;;;24.80
11728;BMP180;5920;49.166;8.624;2022-09-12T09:09:15;100311.00;;;24.90
11728;BMP180;5920;49.166;8.624;2022-09-12T09:11:48;100308.00;;;24.90
11728;BMP180;5920;49.166;8.624;2022-09-12T09:14:34;100303.00;;;24.90
11728;BMP180;5920;49.166;8.624;2022-09-12T09:17:15;100306.00;;;24.90
11728;BMP180;5920;49.166;8.624;2022-09-12T09:19:43;100307.00;;;24.80
11728;BMP180;5920;49.166;8.624;2022-09-12T09:22:13;100310.00;;;25.00
11728;BMP180;5920;49.166;8.624;2022-09-12T09:24:43;100305.00;;;25.20
11728;BMP180;5920;49.166;8.624;2022-09-12T09:27:11;100305.00;;;25.20
11728;BMP180;5920;49.166;8.624;2022-09-12T09:29:42;100307.00;;;25.10
11728;BMP180;5920;49.166;8.624;2022-09-12T09:32:11;100308.00;;;25.20
11728;BMP180;5920;49.166;8.624;2022-09-12T09:34:39;100298.00;;;25.30
11728;BMP180;5920;49.166;8.624;2022-09-12T09:37:06;100317.00;;;25.50
11728;BMP180;5920;49.166;8.624;2022-09-12T09:39:39;100313.00;;;25.50
11728;BMP180;5920;49.166;8.624;2022-09-12T09:42:14;100309.00;;;25.50
11728;BMP180;5920;49.166;8.624;2022-09-12T09:44:43;100304.00;;;25.60
11728;BMP180;5920;49.166;8.624;2022-09-12T09:47:12;100308.00;;;25.60
11728;BMP180;5920;49.166;8.624;2022-09-12T09:49:38;100305.00;;;25.50
11728;BMP180;5920;49.166;8.624;2022-09-12T09:52:06;100308.00;;;25.40
11728;BMP180;5920;49.166;8.624;2022-09-12T09:54:34;100311.00;;;25.40
11728;BMP180;5920;49.166;8.624;2022-09-12T09:57:01;100303.00;;;25.40
11728;BMP180;5920;49.166;8.624;2022-09-12T09:59:31;100306.00;;;25.30
11728;BMP180;5920;49.166;8.624;2022-09-12T10:01:58;100307.00;;;25.40
11728;BMP180;5920;49.166;8.624;2022-09-12T10:04:28;100306.00;;;25.50
11728;BMP180;5920;49.166;8.624;2022-09-12T10:06:56;100307.00;;;25.40
11728;BMP180;5920;49.166;8.624;2022-09-12T10:09:23;100309.00;;;25.40
11728;BMP180;5920;49.166;8.624;2022-09-12T10:11:51;100295.00;;;25.40
11728;BMP180;5920;49.166;8.624;2022-09-12T10:14:28;100293.00;;;25.30
11728;BMP180;5920;49.166;8.624;2022-09-12T10:16:56;100297.00;;;25.40
11728;BMP180;5920;49.166;8.624;2022-09-12T10:19:32;100298.00;;;25.50
11728;BMP180;5920;49.166;8.624;2022-09-12T10:21:59;100293.00;;;25.60
11728;BMP180;5920;49.166;8.624;2022-09-12T10:24:27;100285.00;;;25.70
11728;BMP180;5920;49.166;8.624;2022-09-12T10:26:56;100286.00;;;25.90
11728;BMP180;5920;49.166;8.624;2022-09-12T10:29:24;100275.00;;;25.90
11728;BMP180;5920;49.166;8.624;2022-09-12T10:31:53;100280.00;;;26.00
11728;BMP180;5920;49.166;8.624;2022-09-12T10:34:23;100275.00;;;26.10
11728;BMP180;5920;49.166;8.624;2022-09-12T10:36:52;100280.00;;;26.10
11728;BMP180;5920;49.166;8.624;2022-09-12T10:39:25;100273.00;;;26.20
11728;BMP180;5920;49.166;8.624;2022-09-12T10:41:57;100274.00;;;26.30
11728;BMP180;5920;49.166;8.624;2022-09-12T10:44:27;100273.00;;;26.30
11728;BMP180;5920;49.166;8.624;2022-09-12T10:46:58;100269.00;;;26.30
11728;BMP180;5920;49.166;8.624;2022-09-12T10:49:35;100279.00;;;26.30
11728;BMP180;5920;49.166;8.624;2022-09-12T10:52:17;100268.00;;;26.30
11728;BMP180;5920;49.166;8.624;2022-09-12T10:54:45;100267.00;;;26.30
11728;BMP180;5920;49.166;8.624;2022-09-12T10:57:25;100267.00;;;26.40
11728;BMP180;5920;49.166;8.624;2022-09-12T11:00:02;100257.00;;;26.40
11728;BMP180;5920;49.166;8.624;2022-09-12T11:02:38;100257.00;;;26.40
11728;BMP180;5920;49.166;8.624;2022-09-12T11:05:13;100253.00;;;26.50
11728;BMP180;5920;49.166;8.624;2022-09-12T11:07:44;100255.00;;;26.50
11728;BMP180;5920;49.166;8.624;2022-09-12T11:10:32;100249.00;;;26.40
11728;BMP180;5920;49.166;8.624;2022-09-12T11:13:10;100253.00;;;26.20
11728;BMP180;5920;49.166;8.624;2022-09-12T11:15:46;100246.00;;;26.10
11728;BMP180;5920;49.166;8.624;2022-09-12T11:18:20;100236.00;;;26.00
11728;BMP180;5920;49.166;8.624;2022-09-12T11:21:08;100241.00;;;25.90
11728;BMP180;5920;49.166;8.624;2022-09-12T11:23:45;100237.00;;;25.90
11728;BMP180;5920;49.166;8.624;2022-09-12T11:26:17;100228.00;;;25.90
11728;BMP180;5920;49.166;8.624;2022-09-12T11:28:48;100227.00;;;25.80
11728;BMP180;5920;49.166;8.624;2022-09-12T11:31:24;100222.00;;;25.80
11728;BMP180;5920;49.166;8.624;2022-09-12T11:34:04;100222.00;;;25.90
11728;BMP180;5920;49.166;8.624;2022-09-12T11:36:36;100221.00;;;25.90
11728;BMP180;5920;49.166;8.624;2022-09-12T11:39:09;100221.00;;;25.90
11728;BMP180;5920;49.166;8.624;2022-09-12T11:41:38;100220.00;;;25.90
11728;BMP180;5920;49.166;8.624;2022-09-12T11:44:09;100220.00;;;26.00
11728;BMP180;5920;49.166;8.624;2022-09-12T11:46:37;100217.00;;;26.10
11728;BMP180;5920;49.166;8.624;2022-09-12T11:49:05;100213.00;;;26.10
11728;BMP180;5920;49.166;8.624;2022-09-12T11:51:40;100208.00;;;26.10
11728;BMP180;5920;49.166;8.624;2022-09-12T11:54:16;100202.00;;;26.20
11728;BMP180;5920;49.166;8.624;2022-09-12T11:56:49;100204.00;;;26.20
11728;BMP180;5920;49.166;8.624;2022-09-12T11:59:23;100206.00;;;26.20
11728;BMP180;5920;49.166;8.624;2022-09-12T12:01:51;100209.00;;;26.20
11728;BMP180;5920;49.166;8.624;2022-09-12T12:04:22;100206.00;;;26.20
11728;BMP180;5920;49.166;8.624;2022-09-12T12:06:55;100204.00;;;26.20
11728;BMP180;5920;49.166;8.624;2022-09-12T12:09:23;100202.00;;;26.20
11728;BMP180;5920;49.166;8.624;2022-09-12T12:11:52;100191.00;;;26.20
11728;BMP180;5920;49.166;8.624;2022-09-12T12:14:21;100195.00;;;26.10
11728;BMP180;5920;49.166;8.624;2022-09-12T12:16:48;100196.00;;;26.00
11728;BMP180;5920;49.166;8.624;2022-09-12T12:19:27;100193.00;;;25.90
11728;BMP180;5920;49.166;8.624;2022-09-12T12:21:57;100181.00;;;25.90
11728;BMP180;5920;49.166;8.624;2022-09-12T12:24:30;100181.00;;;25.90
11728;BMP180;5920;49.166;8.624;2022-09-12T12:26:59;100180.00;;;25.90
11728;BMP180;5920;49.166;8.624;2022-09-12T12:29:36;100176.00;;;25.90
11728;BMP180;5920;49.166;8.624;2022-09-12T12:32:19;100172.00;;;25.90
11728;BMP180;5920;49.166;8.624;2022-09-12T12:34:46;100166.00;;;25.90
11728;BMP180;5920;49.166;8.624;2022-09-12T12:40:01;100177.00;;;26.00
11728;BMP180;5920;49.166;8.624;2022-09-12T12:48:13;100157.00;;;25.90
11728;BMP180;5920;49.166;8.624;2022-09-12T12:50:40;100150.00;;;25.90
11728;BMP180;5920;49.166;8.624;2022-09-12T12:53:06;100152.00;;;26.00
11728;BMP180;5920;49.166;8.624;2022-09-12T12:55:46;100149.00;;;26.00
11728;BMP180;5920;49.166;8.624;2022-09-12T12:58:24;100141.00;;;25.90
11728;BMP180;5920;49.166;8.624;2022-09-12T13:01:00;100142.00;;;26.00
11728;BMP180;5920;49.166;8.624;2022-09-12T13:03:29;100148.00;;;26.00
11728;BMP180;5920;49.166;8.624;2022-09-12T13:05:57;100144.00;;;26.10
11728;BMP180;5920;49.166;8.624;2022-09-12T13:08:26;100147.00;;;26.10
11728;BMP180;5920;49.166;8.624;2022-09-12T13:10:58;100140.00;;;26.10
11728;BMP180;5920;49.166;8.624;2022-09-12T13:13:26;100133.00;;;26.20
11728;BMP180;5920;49.166;8.624;2022-09-12T13:15:53;100129.00;;;26.10
11728;BMP180;5920;49.166;8.624;2022-09-12T13:18:22;100126.00;;;26.20
11728;BMP180;5920;49.166;8.624;2022-09-12T13:20:50;100128.00;;;26.20
11728;BMP180;5920;49.166;8.624;2022-09-12T13:23:22;100127.00;;;26.20
11728;BMP180;5920;49.166;8.624;2022-09-12T13:25:51;100129.00;;;26.20
11728;BMP180;5920;49.166;8.624;2022-09-12T13:28:19;100121.00;;;26.20
11728;BMP180;5920;49.166;8.624;2022-09-12T13:30:46;100123.00;;;26.20
11728;BMP180;5920;49.166;8.624;2022-09-12T13:33:18;100119.00;;;26.20
11728;BMP180;5920;49.166;8.624;2022-09-12T13:35:54;100115.00;;;26.20
11728;BMP180;5920;49.166;8.624;2022-09-12T13:38:25;100111.00;;;26.10
11728;BMP180;5920;49.166;8.624;2022-09-12T13:40:59;100112.00;;;26.10
11728;BMP180;5920;49.166;8.624;2022-09-12T13:43:36;100106.00;;;26.00
11728;BMP180;5920;49.166;8.624;2022-09-12T13:46:05;100099.00;;;26.10
11728;BMP180;5920;49.166;8.624;2022-09-12T13:48:32;100101.00;;;26.10
11728;BMP180;5920;49.166;8.624;2022-09-12T13:50:59;100096.00;;;26.10
11728;BMP180;5920;49.166;8.624;2022-09-12T13:53:28;100102.00;;;26.10
11728;BMP180;5920;49.166;8.624;2022-09-12T13:55:57;100090.00;;;26.10
11728;BMP180;5920;49.166;8.624;2022-09-12T13:58:24;100087.00;;;26.10
11728;BMP180;5920;49.166;8.624;2022-09-12T14:01:05;100088.00;;;26.10
11728;BMP180;5920;49.166;8.624;2022-09-12T14:03:33;100081.00;;;26.20
11728;BMP180;5920;49.166;8.624;2022-09-12T14:06:20;100078.00;;;26.20
11728;BMP180;5920;49.166;8.624;2022-09-12T14:08:47;100075.00;;;26.20
11728;BMP180;5920;49.166;8.624;2022-09-12T14:11:20;100084.00;;;26.30
11728;BMP180;5920;49.166;8.624;2022-09-12T14:13:48;100084.00;;;26.30
11728;BMP180;5920;49.166;8.624;2022-09-12T14:16:16;100078.00;;;26.40
11728;BMP180;5920;49.166;8.624;2022-09-12T14:18:43;100069.00;;;26.40
11728;BMP180;5920;49.166;8.624;2022-09-12T14:21:15;100068.00;;;26.40
11728;BMP180;5920;49.166;8.624;2022-09-12T14:23:46;100068.00;;;26.40
11728;BMP180;5920;49.166;8.624;2022-09-12T14:26:14;100060.00;;;26.30
11728;BMP180;5920;49.166;8.624;2022-09-12T14:28:42;100068.00;;;26.30
11728;BMP180;5920;49.166;8.624;2022-09-12T14:31:21;100065.00;;;26.30
11728;BMP180;5920;49.166;8.624;2022-09-12T14:33:50;100070.00;;;26.30
11728;BMP180;5920;49.166;8.624;2022-09-12T14:36:18;100064.00;;;26.30